This is the latest recevied weather packets stored in our database for station/object OH2HCY. If no packets are shown the sender has not sent any weather packets the latest 10 day(s).
| Time | Temp. | Humidity | Pressure | Rain* | Wind** | Luminosity | Snow |
|---|---|---|---|---|---|---|---|
| 1778074788 | 11.11° C | 37% | 1009.9 hPa | - | - | - | - |
| 1778074230 | 10.56° C | 40% | 1010.1 hPa | - | - | - | - |
| 1778073700 | 10.56° C | 41% | 1010.2 hPa | - | - | - | - |
| 1778073145 | 10° C | 42% | 1010.3 hPa | - | - | - | - |
| 1778072638 | 11.11° C | 36% | 1010.1 hPa | - | - | - | - |
| 1778072095 | 10.56° C | 25% | 1010.3 hPa | - | - | - | - |
| 1778071535 | 10.56° C | 25% | 1010.2 hPa | - | - | - | - |
| 1778071000 | 10.56° C | 27% | 1010.1 hPa | - | - | - | - |
| 1778070460 | 10.56° C | 27% | 1010.1 hPa | - | - | - | - |
| 1778069935 | 11.11° C | 26% | 1009.9 hPa | - | - | - | - |
| 1778069405 | 10.56° C | 25% | 1009.9 hPa | - | - | - | - |
| 1778068870 | 11.11° C | 24% | 1009.7 hPa | - | - | - | - |
| 1778068305 | 11.67° C | 24% | 1009.8 hPa | - | - | - | - |
| 1778067807 | 11.11° C | 25% | 1009.7 hPa | - | - | - | - |
| 1778067245 | 11.11° C | 25% | 1009.7 hPa | - | - | - | - |
| 1778066710 | 11.67° C | 25% | 1009.7 hPa | - | - | - | - |
| 1778066170 | 10.56° C | 26% | 1010 hPa | - | - | - | - |
| 1778065605 | 10.56° C | 26% | 1010.1 hPa | - | - | - | - |
| 1778065064 | 10° C | 26% | 1010.2 hPa | - | - | - | - |
| 1778064520 | 10.56° C | 26% | 1009.8 hPa | - | - | - | - |
| 1778063985 | 10.56° C | 27% | 1009.9 hPa | - | - | - | - |
| 1778063440 | 10.56° C | 28% | 1010.1 hPa | - | - | - | - |
| 1778062920 | 10° C | 28% | 1010.2 hPa | - | - | - | - |
| 1778062417 | 10° C | 29% | 1010.4 hPa | - | - | - | - |
| 1778061855 | 10° C | 29% | 1010.2 hPa | - | - | - | - |
* Rain since midnight (hover to see other rain measurements)
** Current wind speed in m/s (hover to see current wind gust speed)